createdAt,value
2019-03-02T00:01:48.930Z,61.45
2019-03-02T00:04:19.176Z,61.77
2019-03-02T00:06:48.833Z,61.38
2019-03-02T00:09:18.471Z,61.69
2019-03-02T00:11:48.247Z,61.94
2019-03-02T00:14:19.256Z,61.45
2019-03-02T00:16:49.152Z,61.46
2019-03-02T00:19:18.768Z,61.73
2019-03-02T00:21:48.423Z,61.87
2019-03-02T00:24:17.962Z,61.76
2019-03-02T00:26:47.536Z,61.85
2019-03-02T00:29:17.184Z,61.10
2019-03-02T00:31:46.797Z,61.51
2019-03-02T00:34:16.447Z,61.13
2019-03-02T00:36:46.075Z,61.17
2019-03-02T00:39:19.020Z,61.41
2019-03-02T00:41:47.128Z,61.66
2019-03-02T00:44:16.857Z,61.80
2019-03-02T00:46:46.412Z,61.66
2019-03-02T00:49:15.943Z,61.71
2019-03-02T00:51:46.235Z,61.46
2019-03-02T00:54:17.107Z,60.82
2019-03-02T00:56:46.727Z,61.18
2019-03-02T00:59:16.327Z,61.87
2019-03-02T01:01:46.059Z,61.62
2019-03-02T01:04:15.589Z,61.75
2019-03-02T01:06:48.866Z,61.94
2019-03-02T01:09:16.628Z,62.47
2019-03-02T01:11:46.256Z,62.75
2019-03-02T01:14:15.930Z,63.72
2019-03-02T01:16:45.557Z,63.81
2019-03-02T01:19:17.631Z,63.99
2019-03-02T01:21:46.417Z,63.91
2019-03-02T01:24:16.006Z,63.81
2019-03-02T01:26:45.658Z,63.85
2019-03-02T01:29:15.563Z,63.72
2019-03-02T01:31:46.551Z,63.49
2019-03-02T01:34:16.260Z,63.57
2019-03-02T01:36:45.875Z,64.13
2019-03-02T01:39:15.451Z,64.05
2019-03-02T01:41:45.088Z,64.08
2019-03-02T01:44:16.253Z,63.73
2019-03-02T01:46:46.156Z,63.56
2019-03-02T01:49:15.743Z,63.68
2019-03-02T01:51:45.363Z,63.29
2019-03-02T01:54:17.906Z,63.31
2019-03-02T01:56:46.320Z,63.41
2019-03-02T01:59:16.066Z,63.85
2019-03-02T02:01:45.833Z,63.47
2019-03-02T02:04:18.750Z,63.93
2019-03-02T02:06:46.797Z,64.24
2019-03-02T02:09:16.530Z,64.58
2019-03-02T02:11:46.151Z,64.20
2019-03-02T02:14:18.567Z,64.24
2019-03-02T02:16:47.036Z,64.17
2019-03-02T02:19:16.681Z,64.29
2019-03-02T02:21:46.313Z,64.49
2019-03-02T02:24:16.089Z,64.59
2019-03-02T02:26:46.894Z,65.10
2019-03-02T02:29:17.150Z,65.32
2019-03-02T02:31:46.868Z,65.30
2019-03-02T02:34:21.375Z,65.75
2019-03-02T02:36:47.918Z,65.58
2019-03-02T02:39:17.534Z,65.85
2019-03-02T02:41:47.082Z,65.83
2019-03-02T02:44:16.743Z,64.91
2019-03-02T02:46:46.305Z,64.31
2019-03-02T02:49:15.890Z,64.04
2019-03-02T02:51:49.415Z,64.24
2019-03-02T02:54:22.375Z,63.80
2019-03-02T02:56:48.477Z,63.29
2019-03-02T02:59:18.081Z,63.17
2019-03-02T03:01:47.706Z,62.30
2019-03-02T03:04:17.237Z,62.82
2019-03-02T03:06:46.846Z,62.91
2019-03-02T03:09:38.470Z,62.51
2019-03-02T03:12:08.081Z,61.77
2019-03-02T03:14:37.662Z,61.44
2019-03-02T03:17:07.386Z,61.27
2019-03-02T03:19:36.961Z,61.21
2019-03-02T03:22:07.547Z,61.42
2019-03-02T03:24:40.644Z,61.14
2019-03-02T03:27:13.221Z,60.96
2019-03-02T03:29:44.533Z,60.70
2019-03-02T03:32:12.557Z,60.55
2019-03-02T03:34:42.163Z,60.51
2019-03-02T03:37:13.099Z,60.13
2019-03-02T03:39:46.350Z,60.07
2019-03-02T03:42:22.633Z,60.13
2019-03-02T03:44:45.738Z,59.47
2019-03-02T03:47:15.275Z,59.51
2019-03-02T03:49:44.874Z,59.41
2019-03-02T03:52:14.670Z,59.63
2019-03-02T03:54:45.477Z,59.69
2019-03-02T03:57:17.227Z,59.73
2019-03-02T03:59:46.968Z,60.05
2019-03-02T04:02:16.686Z,59.62
2019-03-02T04:04:46.327Z,60.13
2019-03-02T04:07:15.945Z,60.48
2019-03-02T04:09:46.903Z,60.92
2019-03-02T04:12:19.879Z,61.61
2019-03-02T04:14:48.080Z,61.90
2019-03-02T04:17:17.802Z,62.22
2019-03-02T04:19:47.410Z,62.18
2019-03-02T04:22:17.567Z,62.80
2019-03-02T04:24:47.295Z,62.39
2019-03-02T04:27:17.245Z,63.51
2019-03-02T04:29:49.817Z,65.11
2019-03-02T04:32:18.261Z,66.94
2019-03-02T04:34:47.838Z,68.19
2019-03-02T04:37:20.238Z,69.71
2019-03-02T04:39:49.966Z,70.53
2019-03-02T04:42:20.019Z,71.43
2019-03-02T04:44:49.742Z,72.29
2019-03-02T04:47:22.461Z,73.32
2019-03-02T04:49:51.385Z,74.16
2019-03-02T04:52:21.106Z,75.23
2019-03-02T04:54:50.725Z,76.16
2019-03-02T04:57:20.385Z,77.07
2019-03-02T04:59:49.914Z,77.86
2019-03-02T05:02:19.756Z,78.13
2019-03-02T05:04:50.097Z,78.68
2019-03-02T05:07:19.804Z,78.86
2019-03-02T05:09:52.115Z,79.46
2019-03-02T05:12:20.772Z,79.39
2019-03-02T05:14:50.409Z,79.34
2019-03-02T05:17:20.049Z,79.67
2019-03-02T05:19:49.601Z,79.04
2019-03-02T05:22:19.716Z,76.61
2019-03-02T05:24:49.521Z,76.09
2019-03-02T05:27:19.101Z,76.95
2019-03-02T05:29:50.788Z,75.60
2019-03-02T05:32:20.078Z,74.34
2019-03-02T05:34:49.625Z,72.11
2019-03-02T05:37:19.234Z,70.12
2019-03-02T05:41:45.171Z,69.73
2019-03-02T05:44:14.853Z,69.07
2019-03-02T05:46:44.535Z,68.59
2019-03-02T05:49:15.706Z,67.92
2019-03-02T05:51:45.395Z,67.04
2019-03-02T05:54:14.922Z,66.69
2019-03-02T05:56:44.475Z,66.88
2019-03-02T05:59:14.024Z,66.49
2019-03-02T06:01:43.722Z,65.65
2019-03-02T06:04:13.272Z,64.24
2019-03-02T06:06:42.926Z,61.92
2019-03-02T06:09:14.711Z,60.00
2019-03-02T06:11:44.085Z,57.88
2019-03-02T06:14:13.608Z,57.75
2019-03-02T06:16:43.304Z,56.16
2019-03-02T06:19:12.847Z,55.18
2019-03-02T06:21:42.736Z,54.76
2019-03-02T06:24:15.408Z,53.53
2019-03-02T06:26:45.273Z,52.87
2019-03-02T06:29:14.864Z,53.43
2019-03-02T06:31:44.411Z,53.12
2019-03-02T06:34:16.711Z,52.84
2019-03-02T06:36:46.063Z,52.37
2019-03-02T06:40:09.219Z,52.93
2019-03-02T06:42:41.811Z,53.82
2019-03-02T06:45:10.589Z,53.35
2019-03-02T06:47:39.856Z,53.08
2019-03-02T06:50:10.735Z,53.34
2019-03-02T06:52:40.103Z,53.62
2019-03-02T06:55:09.756Z,54.11
2019-03-02T06:57:39.202Z,53.66
2019-03-02T07:00:18.736Z,53.47
2019-03-02T07:02:47.970Z,53.56
2019-03-02T07:05:17.299Z,53.39
2019-03-02T07:07:46.630Z,53.57
2019-03-02T07:10:20.971Z,53.79
2019-03-02T07:12:48.459Z,53.16
2019-03-02T07:15:17.709Z,53.42
2019-03-02T07:18:06.480Z,53.61
2019-03-02T07:20:36.565Z,54.12
2019-03-02T07:23:05.847Z,54.99
2019-03-02T07:25:37.041Z,55.13
2019-03-02T07:28:07.360Z,55.33
2019-03-02T07:30:37.965Z,55.45
2019-03-02T07:33:11.423Z,56.21
2019-03-02T07:35:41.217Z,56.25
2019-03-02T07:38:10.972Z,56.13
2019-03-02T07:40:45.503Z,57.48
2019-03-02T07:43:14.126Z,57.79
2019-03-02T07:45:43.702Z,57.08
2019-03-02T07:48:13.269Z,57.29
2019-03-02T07:50:42.905Z,58.30
2019-03-02T07:53:12.502Z,58.18
2019-03-02T07:55:42.236Z,57.41
2019-03-02T07:58:12.893Z,57.56
2019-03-02T08:00:42.567Z,58.21
2019-03-02T08:03:12.228Z,58.54
2019-03-02T08:05:42.035Z,57.68
2019-03-02T08:08:13.953Z,57.15
2019-03-02T08:10:42.984Z,58.02
2019-03-02T08:13:12.557Z,58.11
2019-03-02T08:15:46.448Z,58.56
2019-03-02T08:18:15.826Z,59.03
2019-03-02T08:20:45.438Z,59.17
2019-03-02T08:23:15.188Z,58.54
2019-03-02T08:25:44.879Z,58.91
2019-03-02T08:28:14.423Z,59.13
2019-03-02T08:30:43.983Z,59.50
2019-03-02T08:33:13.616Z,60.15
2019-03-02T08:35:43.243Z,60.40
2019-03-02T08:38:12.820Z,60.78
2019-03-02T08:40:43.870Z,60.84
2019-03-02T08:43:16.385Z,61.41
2019-03-02T08:45:44.775Z,61.11
2019-03-02T08:48:14.438Z,61.23
2019-03-02T08:50:45.632Z,59.12
2019-03-02T08:53:15.294Z,58.33
2019-03-02T08:55:44.853Z,57.87
2019-03-02T08:58:14.515Z,56.73
2019-03-02T09:00:44.145Z,56.24
2019-03-02T09:03:13.717Z,55.82
2019-03-02T09:05:50.512Z,52.95
2019-03-02T09:08:14.883Z,52.18
2019-03-02T09:10:45.866Z,52.28
2019-03-02T09:13:15.897Z,52.52
2019-03-02T09:15:45.506Z,52.21
2019-03-02T09:18:15.255Z,51.90
2019-03-02T09:20:44.970Z,51.53
2019-03-02T09:23:15.222Z,52.93
2019-03-02T09:25:45.011Z,52.69
2019-03-02T09:28:14.622Z,53.59
2019-03-02T09:30:44.214Z,54.46
2019-03-02T09:33:13.757Z,55.06
2019-03-02T09:35:43.332Z,54.95
2019-03-02T09:38:13.006Z,56.03
2019-03-02T09:40:45.837Z,56.13
2019-03-02T09:43:16.168Z,55.52
2019-03-02T09:45:48.132Z,54.97
2019-03-02T09:48:16.662Z,54.16
2019-03-02T09:50:46.404Z,53.39
2019-03-02T09:53:16.011Z,53.68
2019-03-02T09:55:45.586Z,53.48
2019-03-02T09:58:15.585Z,53.18
2019-03-02T10:00:45.158Z,52.10
2019-03-02T10:03:16.008Z,51.39
2019-03-02T10:05:46.620Z,50.75
2019-03-02T10:08:16.944Z,51.26
2019-03-02T10:10:46.648Z,50.82
2019-03-02T10:13:16.315Z,49.54
2019-03-02T10:15:45.977Z,49.63
2019-03-02T10:18:15.639Z,48.97
2019-03-02T10:20:45.272Z,47.37
2019-03-02T10:23:14.928Z,46.25
2019-03-02T10:25:44.599Z,46.71
2019-03-02T10:28:14.240Z,45.69
2019-03-02T10:30:43.775Z,45.37
2019-03-02T10:33:13.485Z,46.78
2019-03-02T10:35:43.134Z,47.33
2019-03-02T10:38:14.870Z,48.88
2019-03-02T10:40:45.041Z,46.87
2019-03-02T10:43:15.487Z,47.79
2019-03-02T10:45:46.324Z,49.09
2019-03-02T10:48:15.991Z,48.22
2019-03-02T10:50:45.808Z,48.60
2019-03-02T10:53:15.433Z,49.02
2019-03-02T10:55:48.223Z,49.82
2019-03-02T10:58:16.766Z,50.89
2019-03-02T11:00:46.343Z,51.87
2019-03-02T11:03:15.988Z,52.94
2019-03-02T11:05:56.932Z,55.11
2019-03-02T11:08:40.999Z,54.99
2019-03-02T11:11:29.824Z,54.91
2019-03-02T11:14:21.270Z,55.03
2019-03-02T11:17:05.846Z,53.57
2019-03-02T11:19:49.783Z,54.38
2019-03-02T11:22:38.894Z,54.06
2019-03-02T11:25:24.219Z,55.40
2019-03-02T11:28:03.152Z,54.79
2019-03-02T11:31:09.662Z,54.01
2019-03-02T11:33:56.569Z,53.59
2019-03-02T11:36:51.011Z,52.99
2019-03-02T11:39:39.322Z,52.45
2019-03-02T11:42:36.592Z,53.00
2019-03-02T11:45:38.397Z,53.94
2019-03-02T11:48:26.894Z,53.12
2019-03-02T11:51:14.248Z,52.09
2019-03-02T11:54:08.736Z,50.30
2019-03-02T11:56:59.852Z,49.97
2019-03-02T11:59:54.182Z,49.64
2019-03-02T12:02:58.349Z,49.57
2019-03-02T12:06:05.824Z,50.54
2019-03-02T12:09:01.341Z,51.28
2019-03-02T12:11:47.008Z,52.20
2019-03-02T12:14:42.886Z,52.93
2019-03-02T12:17:41.082Z,53.83
2019-03-02T12:20:41.342Z,53.52
2019-03-02T12:23:34.126Z,53.08
2019-03-02T12:26:42.899Z,53.73
2019-03-02T12:29:30.180Z,54.22
2019-03-02T12:32:09.485Z,54.77
2019-03-02T12:35:10.077Z,54.87
2019-03-02T12:37:58.433Z,54.90
2019-03-02T12:40:55.766Z,54.47
2019-03-02T12:43:40.618Z,55.10
2019-03-02T12:46:39.504Z,54.46
2019-03-02T12:49:33.902Z,54.05
2019-03-02T12:52:28.405Z,54.75
2019-03-02T12:55:16.358Z,55.83
2019-03-02T12:57:54.550Z,56.21
2019-03-02T13:00:30.608Z,57.92
2019-03-02T13:03:27.283Z,57.61
2019-03-02T13:06:12.024Z,57.98
2019-03-02T13:08:59.216Z,59.92
2019-03-02T13:11:57.573Z,59.67
2019-03-02T13:14:52.171Z,60.28
2019-03-02T13:17:46.487Z,61.38
2019-03-02T13:20:25.317Z,61.46
2019-03-02T13:23:02.995Z,62.11
2019-03-02T13:25:51.683Z,62.70
2019-03-02T13:28:43.326Z,60.82
2019-03-02T13:31:39.978Z,60.12
2019-03-02T13:34:37.067Z,60.01
2019-03-02T13:37:28.223Z,59.83
2019-03-02T13:40:15.390Z,59.23
2019-03-02T13:42:53.677Z,58.13
2019-03-02T13:45:55.098Z,57.88
2019-03-02T13:48:53.535Z,57.91
2019-03-02T13:51:37.334Z,57.25
2019-03-02T13:54:25.175Z,58.56
2019-03-02T13:57:19.724Z,58.75
2019-03-02T14:00:07.894Z,58.87
2019-03-02T14:02:54.152Z,60.29
2019-03-02T14:05:45.552Z,61.33
2019-03-02T14:08:32.797Z,62.62
2019-03-02T14:11:36.342Z,62.69
2019-03-02T14:14:13.636Z,63.38
2019-03-02T14:17:00.503Z,63.21
2019-03-02T14:19:48.907Z,63.55
2019-03-02T14:22:28.208Z,63.58
2019-03-02T14:25:22.883Z,64.21
2019-03-02T14:28:00.489Z,64.52
2019-03-02T14:31:07.111Z,64.56
2019-03-02T14:34:07.083Z,64.74
2019-03-02T14:36:43.329Z,64.91
2019-03-02T14:39:30.647Z,65.32
2019-03-02T14:42:39.973Z,65.83
2019-03-02T14:45:26.314Z,66.31
2019-03-02T14:48:17.651Z,66.68
2019-03-02T14:50:53.469Z,67.33
2019-03-02T14:53:45.172Z,67.19
2019-03-02T14:56:40.664Z,67.39
2019-03-02T14:59:27.469Z,68.01
2019-03-02T15:02:18.878Z,68.62
2019-03-02T15:05:07.315Z,68.03
2019-03-02T15:08:00.007Z,67.80
2019-03-02T15:10:51.150Z,68.12
2019-03-02T15:13:46.070Z,67.61
2019-03-02T15:16:36.726Z,67.47
2019-03-02T15:19:27.626Z,66.42
2019-03-02T15:22:04.972Z,66.31
2019-03-02T15:25:08.557Z,66.72
2019-03-02T15:27:52.749Z,66.31
2019-03-02T15:30:49.027Z,66.75
2019-03-02T15:33:30.424Z,67.68
2019-03-02T15:36:15.231Z,68.73
2019-03-02T15:39:02.016Z,69.69
2019-03-02T15:41:49.206Z,70.60
2019-03-02T15:44:34.493Z,71.05
2019-03-02T15:47:22.077Z,71.69
2019-03-02T15:50:06.077Z,72.28
2019-03-02T15:52:57.432Z,72.57
2019-03-02T15:55:49.723Z,73.31
2019-03-02T15:58:45.410Z,73.95
2019-03-02T16:01:28.837Z,74.89
2019-03-02T16:04:36.552Z,76.07
2019-03-02T16:07:23.772Z,76.89
2019-03-02T16:10:11.699Z,77.77
2019-03-02T16:13:09.318Z,78.05
2019-03-02T16:15:48.999Z,78.83
2019-03-02T16:18:49.204Z,79.52
2019-03-02T16:21:40.353Z,80.09
2019-03-02T16:24:27.312Z,80.16
2019-03-02T16:27:14.653Z,80.50
2019-03-02T16:29:56.763Z,80.14
2019-03-02T16:32:43.547Z,80.13
2019-03-02T16:35:40.751Z,79.90
2019-03-02T16:38:38.446Z,79.91
2019-03-02T16:41:31.166Z,80.17
2019-03-02T16:44:18.927Z,80.16
2019-03-02T16:46:57.264Z,80.35
2019-03-02T16:49:57.613Z,81.09
2019-03-02T16:52:44.483Z,81.97
2019-03-02T16:55:32.855Z,82.33
2019-03-02T16:58:10.266Z,82.67
2019-03-02T17:00:58.730Z,83.04
2019-03-02T17:03:43.846Z,83.27
2019-03-02T17:06:25.327Z,83.82
2019-03-02T17:09:01.944Z,83.77
2019-03-02T17:11:42.375Z,83.83
2019-03-02T17:14:33.749Z,84.04
2019-03-02T17:17:37.494Z,83.84
2019-03-02T17:20:25.909Z,83.77
2019-03-02T17:23:05.409Z,83.71
2019-03-02T17:25:40.767Z,83.95
2019-03-02T17:28:35.362Z,83.98
2019-03-02T17:31:31.330Z,84.07
2019-03-02T17:34:28.767Z,84.60
2019-03-02T17:37:17.414Z,84.77
2019-03-02T17:40:07.220Z,85.43
2019-03-02T17:43:10.588Z,85.75
2019-03-02T17:45:51.662Z,85.80
2019-03-02T17:48:40.106Z,85.53
2019-03-02T17:51:22.580Z,85.76
2019-03-02T17:54:11.066Z,86.44
2019-03-02T17:57:03.103Z,85.89
2019-03-02T18:00:09.928Z,85.82
2019-03-02T18:03:07.022Z,85.71
2019-03-02T18:05:50.427Z,85.90
2019-03-02T18:08:36.695Z,85.47
2019-03-02T18:11:23.238Z,84.66
2019-03-02T18:14:09.291Z,84.56
2019-03-02T18:16:46.814Z,84.40
2019-03-02T18:19:17.119Z,83.91
2019-03-02T18:21:46.796Z,83.65
2019-03-02T18:24:16.367Z,83.19
2019-03-02T18:26:45.922Z,82.74
2019-03-02T18:29:15.463Z,82.56
2019-03-02T18:31:45.033Z,82.76
2019-03-02T18:34:19.941Z,82.77
2019-03-02T18:36:49.935Z,84.06
2019-03-02T18:39:21.826Z,83.95
2019-03-02T18:41:53.976Z,83.93
2019-03-02T18:44:22.616Z,84.64
2019-03-02T18:46:53.110Z,84.89
2019-03-02T18:49:32.786Z,84.93
2019-03-02T18:52:39.498Z,84.92
2019-03-02T18:55:09.069Z,85.04
2019-03-02T18:57:38.712Z,84.99
2019-03-02T19:00:16.618Z,85.22
2019-03-02T19:02:48.164Z,85.09
2019-03-02T19:05:15.823Z,85.09
2019-03-02T19:07:45.368Z,85.21
2019-03-02T19:10:14.930Z,85.82
2019-03-02T19:12:44.556Z,85.68
2019-03-02T19:15:14.145Z,85.74
2019-03-02T19:17:47.278Z,85.75
2019-03-02T19:20:16.956Z,85.87
2019-03-02T19:22:46.511Z,85.88
2019-03-02T19:25:16.401Z,85.66
2019-03-02T19:27:45.975Z,85.33
2019-03-02T19:30:18.092Z,85.44
2019-03-02T19:32:47.749Z,85.49
2019-03-02T19:35:17.379Z,85.54
2019-03-02T19:37:46.936Z,85.50
2019-03-02T19:40:18.877Z,85.36
2019-03-02T19:42:48.430Z,85.72
2019-03-02T19:45:18.110Z,85.94
2019-03-02T19:47:47.669Z,85.74
2019-03-02T19:50:18.987Z,85.67
2019-03-02T19:52:48.606Z,85.91
2019-03-02T19:55:18.252Z,85.42
2019-03-02T19:57:47.762Z,85.66
2019-03-02T20:00:25.433Z,86.21
2019-03-02T20:02:55.065Z,86.33
2019-03-02T20:05:24.841Z,86.17
2019-03-02T20:07:54.473Z,85.81
2019-03-02T20:10:24.040Z,85.55
2019-03-02T20:12:53.688Z,86.01
2019-03-02T20:15:23.364Z,86.63
2019-03-02T20:17:53.085Z,86.43
2019-03-02T20:20:22.888Z,86.32
2019-03-02T20:22:52.577Z,86.25
2019-03-02T20:25:22.685Z,86.22
2019-03-02T20:27:52.406Z,86.51
2019-03-02T20:30:21.977Z,86.49
2019-03-02T20:32:51.598Z,86.62
2019-03-02T20:35:22.327Z,86.59
2019-03-02T20:37:51.875Z,86.99
2019-03-02T20:40:21.915Z,87.07
2019-03-02T20:42:51.494Z,87.01
2019-03-02T20:45:21.094Z,86.87
2019-03-02T20:47:50.726Z,86.68
2019-03-02T20:50:20.392Z,86.46
2019-03-02T20:52:49.941Z,86.53
2019-03-02T20:55:19.655Z,86.44
2019-03-02T20:57:50.218Z,86.62
2019-03-02T21:00:22.599Z,86.91
2019-03-02T21:02:52.656Z,87.12
2019-03-02T21:05:22.290Z,87.30
2019-03-02T21:07:51.921Z,87.40
2019-03-02T21:10:22.568Z,87.78
2019-03-02T21:12:52.143Z,88.29
2019-03-02T21:15:27.092Z,88.66
2019-03-02T21:17:56.643Z,88.86
2019-03-02T21:20:26.229Z,89.75
2019-03-02T21:22:55.780Z,90.69
2019-03-02T21:25:25.522Z,90.77
2019-03-02T21:27:55.205Z,90.92
2019-03-02T21:30:24.748Z,91.48
2019-03-02T21:32:54.281Z,93.28
2019-03-02T21:35:23.818Z,96.01
2019-03-02T21:37:53.527Z,97.53
2019-03-02T21:40:23.657Z,99.96
2019-03-02T21:42:53.301Z,100.00
2019-03-02T21:45:23.346Z,100.00
2019-03-02T21:47:53.522Z,100.00
2019-03-02T21:50:25.440Z,100.00
2019-03-02T21:52:55.168Z,100.00
2019-03-02T21:55:24.843Z,100.00
2019-03-02T21:57:54.585Z,100.00
2019-03-02T22:00:25.543Z,100.00
2019-03-02T22:02:55.204Z,100.00
2019-03-02T22:05:24.860Z,100.00
2019-03-02T22:07:54.496Z,100.00
2019-03-02T22:10:33.712Z,100.00
2019-03-02T22:13:03.394Z,100.00
2019-03-02T22:15:32.938Z,100.00
2019-03-02T22:18:02.509Z,100.00
2019-03-02T22:20:32.053Z,100.00
2019-03-02T22:23:05.206Z,100.00
2019-03-02T22:25:36.628Z,100.00
2019-03-02T22:28:07.592Z,100.00
2019-03-02T22:30:37.246Z,100.00
2019-03-02T22:33:07.182Z,100.00
2019-03-02T22:35:37.381Z,100.00
2019-03-02T22:38:07.356Z,100.00
2019-03-02T22:40:38.057Z,100.00
2019-03-02T22:43:07.709Z,100.00
2019-03-02T22:45:38.834Z,100.00
2019-03-02T22:48:08.405Z,100.00
2019-03-02T22:50:37.989Z,100.00
2019-03-02T22:53:07.678Z,100.00
2019-03-02T22:55:38.411Z,100.00
2019-03-02T22:58:08.001Z,100.00
2019-03-02T23:01:13.811Z,100.00
2019-03-02T23:03:41.545Z,100.00
2019-03-02T23:06:11.079Z,100.00
2019-03-02T23:08:40.664Z,100.00
2019-03-02T23:11:10.215Z,100.00
2019-03-02T23:13:39.816Z,100.00
2019-03-02T23:16:09.346Z,100.00
2019-03-02T23:18:38.873Z,100.00
2019-03-02T23:21:08.428Z,100.00
2019-03-02T23:23:37.976Z,100.00
2019-03-02T23:26:07.526Z,100.00
2019-03-02T23:28:37.088Z,100.00
2019-03-02T23:31:06.935Z,100.00
2019-03-02T23:33:36.454Z,100.00
2019-03-02T23:36:06.014Z,100.00
2019-03-02T23:38:35.620Z,100.00
2019-03-02T23:41:05.211Z,100.00
2019-03-02T23:43:34.746Z,100.00
2019-03-02T23:46:04.282Z,100.00
2019-03-02T23:48:33.823Z,100.00
2019-03-02T23:51:03.447Z,100.00
2019-03-02T23:53:33.001Z,100.00
2019-03-02T23:56:02.550Z,100.00
2019-03-02T23:58:32.093Z,100.00
